createdAt,value
2023-03-02T00:02:00.377Z,-2.67
2023-03-02T00:05:04.162Z,-2.73
2023-03-02T00:08:10.034Z,-2.71
2023-03-02T00:11:15.686Z,-2.71
2023-03-02T00:14:18.799Z,-2.73
2023-03-02T00:17:27.950Z,-2.83
2023-03-02T00:20:31.892Z,-2.84
2023-03-02T00:23:35.500Z,-2.91
2023-03-02T00:26:38.658Z,-2.94
2023-03-02T00:29:42.679Z,-2.93
2023-03-02T00:32:45.997Z,-3.07
2023-03-02T00:35:50.917Z,-3.03
2023-03-02T00:38:54.022Z,-3.14
2023-03-02T00:41:59.022Z,-3.12
2023-03-02T00:45:03.129Z,-3.04
2023-03-02T00:48:06.972Z,-3.05
2023-03-02T00:51:11.254Z,-3.10
2023-03-02T00:54:14.762Z,-3.17
2023-03-02T00:57:18.140Z,-3.19
2023-03-02T01:00:24.459Z,-3.21
2023-03-02T01:03:27.946Z,-3.12
2023-03-02T01:06:32.016Z,-3.15
2023-03-02T01:09:35.653Z,-3.13
2023-03-02T01:12:39.640Z,-3.17
2023-03-02T01:15:43.547Z,-3.15
2023-03-02T01:18:47.327Z,-3.14
2023-03-02T01:21:50.843Z,-3.26
2023-03-02T01:24:54.352Z,-3.28
2023-03-02T01:27:58.377Z,-3.34
2023-03-02T01:31:04.750Z,-3.33
2023-03-02T01:34:08.205Z,-3.28
2023-03-02T01:37:12.690Z,-3.31
2023-03-02T01:40:16.476Z,-3.37
2023-03-02T01:43:20.574Z,-3.49
2023-03-02T01:46:35.251Z,-3.51
2023-03-02T01:49:47.118Z,-3.55
2023-03-02T01:52:52.983Z,-3.52
2023-03-02T01:55:58.370Z,-3.44
2023-03-02T01:59:07.266Z,-3.56
2023-03-02T02:02:12.672Z,-3.62
2023-03-02T02:05:21.614Z,-3.57
2023-03-02T02:08:26.207Z,-3.54
2023-03-02T02:11:29.808Z,-3.60
2023-03-02T02:14:33.794Z,-3.60
2023-03-02T02:17:36.881Z,-3.66
2023-03-02T02:20:45.181Z,-3.71
2023-03-02T02:24:08.928Z,-3.60
2023-03-02T02:27:14.920Z,-3.51
2023-03-02T02:30:21.272Z,-3.42
2023-03-02T02:33:26.732Z,-3.40
2023-03-02T02:36:36.226Z,-3.45
2023-03-02T02:39:45.507Z,-3.45
2023-03-02T02:42:51.760Z,-3.41
2023-03-02T02:45:58.142Z,-3.40
2023-03-02T02:49:04.341Z,-3.40
2023-03-02T02:52:14.053Z,-3.40
2023-03-02T02:55:21.712Z,-3.36
2023-03-02T02:58:36.153Z,-3.32
2023-03-02T03:01:40.295Z,-3.25
2023-03-02T03:04:44.138Z,-3.20
2023-03-02T03:07:47.415Z,-3.15
2023-03-02T03:10:51.881Z,-3.07
2023-03-02T03:14:04.344Z,-3.03
2023-03-02T03:17:12.380Z,-2.99
2023-03-02T03:20:20.410Z,-2.99
2023-03-02T03:23:25.947Z,-2.96
2023-03-02T03:26:29.822Z,-2.95
2023-03-02T03:29:35.496Z,-3.07
2023-03-02T03:32:39.325Z,-2.93
2023-03-02T03:35:44.274Z,-2.92
2023-03-02T03:38:48.777Z,-2.88
2023-03-02T03:41:52.728Z,-2.93
2023-03-02T03:44:56.235Z,-2.95
2023-03-02T03:48:00.727Z,-2.94
2023-03-02T03:51:05.771Z,-2.94
2023-03-02T03:54:10.305Z,-2.98
2023-03-02T03:57:13.685Z,-2.94
2023-03-02T04:00:17.887Z,-2.93
2023-03-02T04:03:24.170Z,-2.98
2023-03-02T04:06:36.218Z,-2.99
2023-03-02T04:09:40.458Z,-3.02
2023-03-02T04:12:45.807Z,-3.13
2023-03-02T04:15:49.515Z,-3.10
2023-03-02T04:18:52.837Z,-3.03
2023-03-02T04:21:58.523Z,-3.05
2023-03-02T04:25:02.637Z,-3.03
2023-03-02T04:28:06.724Z,-2.99
2023-03-02T04:31:11.232Z,-3.02
2023-03-02T04:34:14.878Z,-3.10
2023-03-02T04:37:18.755Z,-3.17
2023-03-02T04:40:22.837Z,-3.21
2023-03-02T04:43:26.299Z,-3.25
2023-03-02T04:46:30.023Z,-3.23
2023-03-02T04:49:33.292Z,-3.37
2023-03-02T04:52:38.279Z,-3.48
2023-03-02T04:55:41.702Z,-3.52
2023-03-02T04:58:46.436Z,-3.66
2023-03-02T05:01:49.719Z,-3.74
2023-03-02T05:04:56.683Z,-3.89
2023-03-02T05:08:00.293Z,-3.89
2023-03-02T05:11:04.803Z,-3.88
2023-03-02T05:14:10.141Z,-3.90
2023-03-02T05:17:13.902Z,-3.87
2023-03-02T05:20:18.186Z,-3.77
2023-03-02T05:23:25.662Z,-3.72
2023-03-02T05:26:29.350Z,-3.63
2023-03-02T05:29:33.364Z,-3.57
2023-03-02T05:32:36.922Z,-3.51
2023-03-02T05:35:40.865Z,-3.63
2023-03-02T05:38:44.228Z,-3.62
2023-03-02T05:41:47.800Z,-3.66
2023-03-02T05:44:50.973Z,-3.72
2023-03-02T05:47:54.339Z,-3.74
2023-03-02T05:50:58.148Z,-3.67
2023-03-02T05:54:02.238Z,-3.64
2023-03-02T05:57:07.417Z,-3.65
2023-03-02T06:00:15.890Z,-3.57
2023-03-02T06:03:20.907Z,-3.41
2023-03-02T06:06:23.941Z,-3.36
2023-03-02T06:09:28.329Z,-3.28
2023-03-02T06:12:31.290Z,-3.15
2023-03-02T06:15:35.644Z,-3.23
2023-03-02T06:18:41.337Z,-3.09
2023-03-02T06:21:46.477Z,-3.00
2023-03-02T06:24:49.823Z,-2.76
2023-03-02T06:27:53.981Z,-2.54
2023-03-02T06:30:59.554Z,-2.19
2023-03-02T06:34:03.213Z,-1.62
2023-03-02T06:37:06.668Z,-1.13
2023-03-02T06:40:11.199Z,-0.67
2023-03-02T06:43:18.803Z,-0.25
2023-03-02T06:46:22.376Z,0.14
2023-03-02T06:49:25.773Z,0.40
2023-03-02T06:52:29.173Z,0.64
2023-03-02T06:55:32.310Z,0.85
2023-03-02T06:58:36.848Z,1.20
2023-03-02T07:01:40.215Z,1.66
2023-03-02T07:04:43.755Z,2.09
2023-03-02T07:07:47.552Z,2.60
2023-03-02T07:10:51.523Z,2.93
2023-03-02T07:13:55.840Z,3.18
2023-03-02T07:17:00.742Z,3.44
2023-03-02T07:20:06.608Z,3.90
2023-03-02T07:23:12.624Z,4.13
2023-03-02T07:26:15.926Z,4.46
2023-03-02T07:29:20.048Z,4.83
2023-03-02T07:32:23.573Z,5.06
2023-03-02T07:35:27.312Z,5.30
2023-03-02T07:38:30.726Z,5.48
2023-03-02T07:41:37.376Z,5.37
2023-03-02T07:44:40.629Z,5.55
2023-03-02T07:47:44.044Z,5.67
2023-03-02T07:50:47.528Z,6.18
2023-03-02T07:53:51.575Z,6.39
2023-03-02T07:56:54.776Z,6.48
2023-03-02T07:59:58.381Z,6.46
2023-03-02T08:03:01.906Z,6.44
2023-03-02T08:06:11.236Z,6.55
2023-03-02T08:09:16.845Z,6.40
2023-03-02T08:12:20.480Z,6.04
2023-03-02T08:15:23.697Z,5.93
2023-03-02T08:18:27.464Z,6.11
2023-03-02T08:21:30.983Z,6.55
2023-03-02T08:24:34.889Z,6.93
2023-03-02T08:27:40.431Z,7.31
2023-03-02T08:30:45.816Z,7.66
2023-03-02T08:33:49.070Z,7.87
2023-03-02T08:36:53.385Z,7.53
2023-03-02T08:39:58.885Z,7.22
2023-03-02T08:43:03.469Z,7.01
2023-03-02T08:46:06.810Z,7.14
2023-03-02T08:49:13.773Z,7.72
2023-03-02T08:52:17.050Z,8.36
2023-03-02T08:55:20.650Z,8.40
2023-03-02T08:58:23.790Z,8.42
2023-03-02T09:01:30.418Z,8.94
2023-03-02T09:04:34.246Z,9.50
2023-03-02T09:07:37.655Z,10.13
2023-03-02T09:10:41.340Z,10.59
2023-03-02T09:13:44.871Z,10.23
2023-03-02T09:16:48.387Z,10.25
2023-03-02T09:19:52.007Z,10.32
2023-03-02T09:22:55.305Z,10.61
2023-03-02T09:25:59.252Z,10.46
2023-03-02T09:29:02.825Z,10.59
2023-03-02T09:32:07.391Z,10.40
2023-03-02T09:35:10.892Z,10.32
2023-03-02T09:38:17.832Z,9.99
2023-03-02T09:41:21.121Z,10.10
2023-03-02T09:45:10.595Z,10.35
2023-03-02T09:48:44.747Z,10.56
2023-03-02T09:52:11.780Z,10.90
2023-03-02T09:55:22.818Z,11.00
2023-03-02T09:58:32.695Z,11.30
2023-03-02T10:01:44.844Z,11.86
2023-03-02T10:04:53.450Z,11.98
2023-03-02T10:07:59.317Z,12.22
2023-03-02T10:11:35.657Z,12.31
2023-03-02T10:15:04.342Z,12.66
2023-03-02T10:18:16.215Z,12.64
2023-03-02T10:21:30.791Z,12.43
2023-03-02T10:24:51.409Z,12.74
2023-03-02T10:28:08.364Z,12.93
2023-03-02T10:31:29.694Z,12.98
2023-03-02T10:34:36.294Z,12.88
2023-03-02T10:37:40.696Z,13.06
2023-03-02T10:40:49.519Z,13.42
2023-03-02T10:43:58.449Z,13.14
2023-03-02T10:47:01.874Z,12.70
2023-03-02T10:50:21.970Z,12.61
2023-03-02T10:53:25.395Z,13.28
2023-03-02T10:56:30.237Z,13.57
2023-03-02T10:59:49.234Z,13.56
2023-03-02T11:02:56.835Z,13.66
2023-03-02T11:06:22.635Z,13.52
2023-03-02T11:12:32.669Z,13.66
2023-03-02T11:15:43.727Z,13.56
2023-03-02T11:18:53.513Z,13.86
2023-03-02T11:22:14.625Z,13.85
2023-03-02T11:25:28.752Z,14.25
2023-03-02T11:28:34.972Z,13.94
2023-03-02T11:31:50.229Z,14.26
2023-03-02T11:35:15.136Z,14.29
2023-03-02T11:38:34.252Z,13.86
2023-03-02T11:41:37.845Z,14.10
2023-03-02T11:44:41.840Z,14.26
2023-03-02T11:47:57.421Z,14.56
2023-03-02T11:51:11.728Z,14.17
2023-03-02T11:54:44.618Z,14.07
2023-03-02T11:57:51.834Z,14.22
2023-03-02T12:00:58.075Z,14.01
2023-03-02T12:04:40.669Z,14.08
2023-03-02T12:07:44.686Z,14.46
2023-03-02T12:11:01.947Z,15.11
2023-03-02T12:14:26.090Z,14.79
2023-03-02T12:17:30.911Z,14.33
2023-03-02T12:20:34.489Z,13.92
2023-03-02T12:23:55.459Z,14.52
2023-03-02T12:27:01.475Z,14.47
2023-03-02T12:30:26.431Z,14.41
2023-03-02T12:33:29.739Z,14.49
2023-03-02T12:36:42.659Z,13.94
2023-03-02T12:40:10.732Z,13.72
2023-03-02T12:43:38.398Z,14.26
2023-03-02T12:46:46.467Z,14.50
2023-03-02T12:50:25.576Z,14.60
2023-03-02T12:53:29.749Z,13.51
2023-03-02T12:56:35.703Z,13.71
2023-03-02T12:59:39.914Z,13.94
2023-03-02T13:02:52.596Z,14.18
2023-03-02T13:06:06.158Z,14.31
2023-03-02T13:09:14.199Z,14.17
2023-03-02T13:12:17.971Z,14.65
2023-03-02T13:15:22.976Z,14.64
2023-03-02T13:18:35.102Z,14.23
2023-03-02T13:21:39.677Z,14.28
2023-03-02T13:24:51.553Z,14.29
2023-03-02T13:27:58.272Z,14.42
2023-03-02T13:31:06.265Z,14.47
2023-03-02T13:34:24.542Z,14.13
2023-03-02T13:37:33.330Z,14.44
2023-03-02T13:40:48.371Z,14.44
2023-03-02T13:43:51.753Z,14.40
2023-03-02T13:46:55.929Z,14.08
2023-03-02T13:50:07.567Z,14.27
2023-03-02T13:53:15.726Z,14.14
2023-03-02T13:56:19.641Z,14.04
2023-03-02T13:59:23.956Z,14.06
2023-03-02T14:02:29.922Z,14.07
2023-03-02T14:05:33.734Z,14.03
2023-03-02T14:08:37.084Z,14.23
2023-03-02T14:11:47.809Z,14.48
2023-03-02T14:14:53.233Z,14.21
2023-03-02T14:17:56.782Z,13.79
2023-03-02T14:21:00.737Z,13.76
2023-03-02T14:24:04.441Z,13.75
2023-03-02T14:27:09.616Z,13.59
2023-03-02T14:30:17.315Z,13.42
2023-03-02T14:33:23.062Z,13.34
2023-03-02T14:36:33.552Z,13.25
2023-03-02T14:39:42.754Z,12.97
2023-03-02T14:42:46.481Z,12.79
2023-03-02T14:45:50.082Z,12.65
2023-03-02T14:48:53.422Z,12.59
2023-03-02T14:52:02.717Z,12.46
2023-03-02T14:55:13.172Z,12.17
2023-03-02T14:58:27.443Z,11.88
2023-03-02T15:01:32.735Z,11.72
2023-03-02T15:04:36.181Z,11.64
2023-03-02T15:07:41.086Z,11.62
2023-03-02T15:10:47.471Z,11.54
2023-03-02T15:13:54.770Z,11.47
2023-03-02T15:16:57.896Z,11.32
2023-03-02T15:20:01.899Z,11.22
2023-03-02T15:23:05.438Z,11.13
2023-03-02T15:26:10.109Z,11.05
2023-03-02T15:29:13.478Z,11.03
2023-03-02T15:32:17.807Z,11.07
2023-03-02T15:35:21.109Z,10.93
2023-03-02T15:38:25.056Z,10.74
2023-03-02T15:41:28.334Z,10.67
2023-03-02T15:44:32.558Z,10.50
2023-03-02T15:47:37.604Z,10.35
2023-03-02T15:50:42.107Z,10.16
2023-03-02T15:53:45.427Z,10.07
2023-03-02T15:56:52.213Z,9.93
2023-03-02T15:59:55.317Z,9.68
2023-03-02T16:02:58.758Z,9.63
2023-03-02T16:06:03.500Z,9.45
2023-03-02T16:09:07.036Z,9.31
2023-03-02T16:12:11.277Z,9.15
2023-03-02T16:15:14.936Z,8.85
2023-03-02T16:18:18.348Z,8.55
2023-03-02T16:21:22.097Z,8.36
2023-03-02T16:24:25.648Z,8.11
2023-03-02T16:27:30.513Z,7.88
2023-03-02T16:30:36.670Z,7.64
2023-03-02T16:33:41.304Z,7.42
2023-03-02T16:36:45.169Z,7.21
2023-03-02T16:39:48.683Z,6.99
2023-03-02T16:42:52.556Z,6.78
2023-03-02T16:45:55.995Z,6.54
2023-03-02T16:49:05.792Z,6.38
2023-03-02T16:52:09.453Z,6.30
2023-03-02T16:55:16.918Z,6.20
2023-03-02T16:58:20.785Z,6.10
2023-03-02T17:01:25.233Z,5.98
2023-03-02T17:04:28.888Z,5.89
2023-03-02T17:07:32.488Z,5.70
2023-03-02T17:10:37.013Z,5.54
2023-03-02T17:13:41.728Z,5.40
2023-03-02T17:16:44.889Z,5.34
2023-03-02T17:19:48.967Z,5.24
2023-03-02T17:22:53.360Z,5.19
2023-03-02T17:26:00.179Z,5.05
2023-03-02T17:29:05.148Z,4.74
2023-03-02T17:32:10.079Z,4.76
2023-03-02T17:35:14.113Z,4.67
2023-03-02T17:38:18.577Z,4.47
2023-03-02T17:41:24.339Z,4.39
2023-03-02T17:44:31.996Z,4.39
2023-03-02T17:47:36.073Z,4.37
2023-03-02T17:50:42.540Z,4.30
2023-03-02T17:53:50.085Z,4.36
2023-03-02T17:56:54.090Z,4.29
2023-03-02T18:00:02.657Z,4.23
2023-03-02T18:03:11.596Z,4.11
2023-03-02T18:06:18.356Z,4.03
2023-03-02T18:09:22.590Z,3.95
2023-03-02T18:12:26.993Z,3.79
2023-03-02T18:15:32.167Z,3.74
2023-03-02T18:18:37.163Z,3.48
2023-03-02T18:21:42.128Z,3.44
2023-03-02T18:24:47.862Z,3.15
2023-03-02T18:27:52.973Z,2.85
2023-03-02T18:30:59.522Z,2.80
2023-03-02T18:34:04.578Z,2.69
2023-03-02T18:37:09.881Z,2.59
2023-03-02T18:40:15.862Z,2.52
2023-03-02T18:43:20.831Z,2.38
2023-03-02T18:46:28.960Z,2.29
2023-03-02T18:49:34.611Z,2.12
2023-03-02T18:52:38.659Z,2.01
2023-03-02T18:55:44.212Z,1.93
2023-03-02T18:58:50.048Z,1.82
2023-03-02T19:01:55.419Z,1.74
2023-03-02T19:05:01.273Z,1.67
2023-03-02T19:08:08.763Z,1.66
2023-03-02T19:11:14.751Z,1.61
2023-03-02T19:14:19.841Z,1.47
2023-03-02T19:17:24.652Z,1.43
2023-03-02T19:20:30.224Z,1.44
2023-03-02T19:23:34.649Z,1.40
2023-03-02T19:26:40.004Z,1.46
2023-03-02T19:29:45.298Z,1.40
2023-03-02T19:32:54.564Z,1.52
2023-03-02T19:35:58.382Z,1.60
2023-03-02T19:39:03.879Z,1.61
2023-03-02T19:42:09.397Z,1.64
2023-03-02T19:45:24.264Z,1.49
2023-03-02T19:48:30.328Z,1.42
2023-03-02T19:51:35.330Z,1.02
2023-03-02T19:54:40.098Z,1.21
2023-03-02T19:57:51.510Z,1.18
2023-03-02T20:00:58.449Z,1.04
2023-03-02T20:04:05.235Z,1.00
2023-03-02T20:07:10.766Z,1.00
2023-03-02T20:10:41.137Z,1.26
2023-03-02T20:13:45.535Z,1.22
2023-03-02T20:16:51.859Z,1.09
2023-03-02T20:19:56.825Z,0.87
2023-03-02T20:23:01.835Z,0.86
2023-03-02T20:26:06.775Z,0.75
2023-03-02T20:29:12.462Z,0.55
2023-03-02T20:32:17.567Z,0.53
2023-03-02T20:35:30.043Z,0.55
2023-03-02T20:38:43.430Z,0.37
2023-03-02T20:41:49.964Z,0.36
2023-03-02T20:44:57.011Z,0.26
2023-03-02T20:48:02.978Z,0.25
2023-03-02T20:51:10.325Z,0.18
2023-03-02T20:54:18.191Z,0.13
2023-03-02T20:57:24.700Z,0.06
2023-03-02T21:00:32.310Z,0.02
2023-03-02T21:03:38.023Z,0.00
2023-03-02T21:06:44.429Z,0.02
2023-03-02T21:09:48.601Z,-0.05
2023-03-02T21:12:53.602Z,-0.24
2023-03-02T21:15:59.246Z,-0.37
2023-03-02T21:19:09.292Z,-0.48
2023-03-02T21:22:13.256Z,-0.52
2023-03-02T21:25:18.120Z,-0.55
2023-03-02T21:28:21.864Z,-0.78
2023-03-02T21:31:27.092Z,-0.63
2023-03-02T21:34:32.244Z,-0.79
2023-03-02T21:37:36.774Z,-0.73
2023-03-02T21:40:46.246Z,-0.70
2023-03-02T21:43:51.093Z,-0.75
2023-03-02T21:46:54.651Z,-0.84
2023-03-02T21:49:59.286Z,-0.82
2023-03-02T21:53:02.965Z,-0.83
2023-03-02T21:56:07.114Z,-0.78
2023-03-02T21:59:11.936Z,-0.83
2023-03-02T22:02:15.461Z,-0.96
2023-03-02T22:05:20.284Z,-1.03
2023-03-02T22:08:23.375Z,-1.09
2023-03-02T22:11:36.868Z,-1.18
2023-03-02T22:14:40.317Z,-1.20
2023-03-02T22:17:44.019Z,-1.25
2023-03-02T22:20:50.249Z,-1.28
2023-03-02T22:24:06.372Z,-1.37
2023-03-02T22:27:23.090Z,-1.37
2023-03-02T22:30:29.500Z,-1.38
2023-03-02T22:33:34.305Z,-1.39
2023-03-02T22:36:37.741Z,-1.40
2023-03-02T22:39:42.284Z,-1.42
2023-03-02T22:42:46.217Z,-1.53
2023-03-02T22:45:49.302Z,-1.70
2023-03-02T22:48:53.834Z,-1.73
2023-03-02T22:52:03.132Z,-1.77
2023-03-02T22:55:34.530Z,-1.91
2023-03-02T22:58:45.696Z,-1.94
2023-03-02T23:01:49.519Z,-1.97
2023-03-02T23:04:53.010Z,-1.93
2023-03-02T23:08:18.119Z,-2.00
2023-03-02T23:11:23.125Z,-2.02
2023-03-02T23:14:36.530Z,-2.09
2023-03-02T23:17:40.703Z,-2.14
2023-03-02T23:20:44.928Z,-2.16
2023-03-02T23:23:50.648Z,-2.25
2023-03-02T23:26:54.404Z,-2.22
2023-03-02T23:29:57.678Z,-2.19
2023-03-02T23:33:01.309Z,-2.16
2023-03-02T23:36:04.620Z,-2.16
2023-03-02T23:39:09.667Z,-2.04
2023-03-02T23:42:13.089Z,-2.14
2023-03-02T23:45:17.773Z,-2.18
2023-03-02T23:48:20.966Z,-2.17
2023-03-02T23:51:28.162Z,-2.27
2023-03-02T23:54:31.564Z,-2.36
2023-03-02T23:57:35.616Z,-2.35
